Time;durP1;ratioP1;P1;durP2;ratioP2;P2;SDS_P1;SDS_P2;PMS_P1;PMS_P2;Temp;Humidity;BMP_temperature;BMP_pressure;BME280_temperature;BME280_humidity;BME280_pressure;Samples;Min_cycle;Max_cycle;Signal;HPM_P1;HPM_P2
2023/01/11 00:00:17;;;;;;;3.90;1.45;;;12.90;99.90;;;12.12;100.00;101080.16;4170822;28;20484;-72
2023/01/11 00:02:18;;;;;;;4.07;1.08;;;12.90;99.90;;;12.13;100.00;101095.00;4171040;28;20060;-72
2023/01/11 00:04:19;;;;;;;3.97;0.80;;;12.90;99.90;;;12.15;100.00;101095.69;4153116;28;20087;-72
2023/01/11 00:06:20;;;;;;;5.50;1.30;;;12.90;99.90;;;12.17;100.00;101091.06;4170027;28;20109;-72
2023/01/11 00:08:23;;;;;;;7.18;1.52;;;12.90;99.90;;;12.12;100.00;101090.72;4179525;28;20546;-72
2023/01/11 00:10:24;;;;;;;7.95;1.83;;;12.80;99.90;;;12.06;100.00;101086.06;4177521;28;20023;-72
2023/01/11 00:12:25;;;;;;;5.90;1.52;;;12.80;99.90;;;12.08;100.00;101094.66;4176983;28;20022;-72
2023/01/11 00:14:25;;;;;;;7.53;1.80;;;12.80;99.90;;;12.07;100.00;101093.00;4152857;28;20029;-72
2023/01/11 00:16:26;;;;;;;9.00;2.38;;;12.80;99.90;;;12.12;100.00;101100.47;4153259;28;20073;-72
2023/01/11 00:18:27;;;;;;;7.57;1.40;;;12.80;99.90;;;12.13;100.00;101094.16;4170611;28;20049;-72
2023/01/11 00:20:28;;;;;;;7.88;1.85;;;12.80;99.90;;;12.00;100.00;101094.63;4179402;28;20024;-72
2023/01/11 00:22:29;;;;;;;7.63;2.60;;;12.80;99.90;;;12.02;100.00;101097.09;4155706;28;20067;-72
2023/01/11 00:24:30;;;;;;;14.25;2.13;;;12.70;99.90;;;12.03;100.00;101091.66;4152872;28;20049;-72
2023/01/11 00:26:31;;;;;;;12.35;2.08;;;12.70;99.90;;;12.03;100.00;101096.94;4157650;28;20377;-72
2023/01/11 00:28:32;;;;;;;13.48;3.00;;;12.70;99.90;;;11.89;100.00;101100.16;4176442;28;20029;-72
2023/01/11 00:30:34;;;;;;;13.55;2.95;;;12.70;99.90;;;11.92;100.00;101099.84;4152700;28;20029;-72
2023/01/11 00:32:35;;;;;;;19.63;3.60;;;12.60;99.90;;;11.89;100.00;101088.75;4170439;28;20056;-72
2023/01/11 00:34:36;;;;;;;14.13;2.92;;;12.70;99.90;;;11.89;100.00;101088.75;4170361;28;20022;-72
2023/01/11 00:36:36;;;;;;;18.48;2.92;;;12.60;99.90;;;11.88;100.00;101085.28;4170266;28;20033;-72
2023/01/11 00:38:45;;;;;;;15.23;2.85;;;12.60;99.90;;;11.91;100.00;101084.97;4152832;28;20034;-72
2023/01/11 00:40:46;;;;;;;13.02;2.63;;;12.60;99.90;;;11.81;100.00;101086.88;4170264;28;20064;-72
2023/01/11 00:49:46;;;;;;;20.38;2.80;;;12.50;99.90;;;11.66;100.00;101076.03;4177328;28;20041;-72
2023/01/11 00:51:47;;;;;;;15.88;2.78;;;12.50;99.90;;;11.66;100.00;101093.69;4161069;28;20018;-72
2023/01/11 00:53:49;;;;;;;18.15;3.05;;;12.50;99.90;;;11.62;100.00;101090.53;4170374;28;20076;-72
2023/01/11 00:55:50;;;;;;;16.88;2.92;;;12.50;99.90;;;11.64;100.00;101069.25;4170021;28;20166;-72
2023/01/11 00:57:52;;;;;;;19.10;4.63;;;12.50;99.90;;;11.58;100.00;101064.56;4170074;28;20025;-72
2023/01/11 00:59:53;;;;;;;18.52;3.88;;;12.40;99.90;;;11.61;100.00;101091.53;4152629;28;20026;-72
2023/01/11 01:01:54;;;;;;;18.60;3.13;;;12.40;99.90;;;11.56;100.00;101108.78;4169945;28;20026;-72
2023/01/11 01:03:55;;;;;;;18.92;4.68;;;12.40;99.90;;;11.55;100.00;101088.66;4169920;28;20048;-72
2023/01/11 01:05:56;;;;;;;17.65;4.07;;;12.40;99.90;;;11.54;100.00;101111.59;4151950;28;20030;-72
2023/01/11 01:07:56;;;;;;;17.27;4.03;;;12.40;99.90;;;11.51;100.00;101106.63;4169713;28;20026;-72
2023/01/11 01:09:57;;;;;;;18.17;3.42;;;12.40;99.90;;;11.57;100.00;101115.75;4177625;28;20025;-72
2023/01/11 01:12:01;;;;;;;20.38;4.03;;;12.40;99.90;;;11.55;100.00;101115.09;4169838;28;20025;-72
2023/01/11 01:16:21;;;;;;;28.25;4.60;;;12.40;99.90;;;11.54;100.00;101122.16;4169552;28;20113;-72
2023/01/11 01:18:22;;;;;;;20.45;3.88;;;12.40;99.90;;;11.54;100.00;101113.41;4169421;28;20063;-72
2023/01/11 01:20:24;;;;;;;29.23;6.07;;;12.40;99.90;;;11.56;100.00;101114.06;4169587;28;20044;-72
2023/01/11 01:22:25;;;;;;;18.95;4.55;;;12.40;99.90;;;11.51;100.00;101111.06;4152200;28;20080;-72
2023/01/11 01:24:28;;;;;;;22.60;4.75;;;12.30;99.90;;;11.50;100.00;101110.25;4151900;28;20030;-72
2023/01/11 01:26:29;;;;;;;28.17;5.68;;;12.30;99.90;;;11.53;100.00;101111.75;4169695;28;20033;-72
2023/01/11 01:28:30;;;;;;;21.65;5.50;;;12.30;99.90;;;11.48;100.00;101101.66;4169683;28;20108;-72
2023/01/11 01:30:32;;;;;;;24.05;5.10;;;12.30;99.90;;;11.45;100.00;101101.13;4169462;28;20080;-72
2023/01/11 01:32:33;;;;;;;24.02;5.00;;;12.30;99.90;;;11.37;100.00;101111.63;4169268;28;20097;-72
2023/01/11 01:34:36;;;;;;;29.23;5.10;;;12.20;99.90;;;11.38;100.00;101121.22;4169405;28;20061;-72
2023/01/11 01:36:37;;;;;;;34.70;6.70;;;12.20;99.90;;;11.39;100.00;101114.94;4152023;28;20018;-72
2023/01/11 01:38:38;;;;;;;42.13;6.93;;;12.20;99.90;;;11.39;100.00;101118.41;4173090;28;20060;-72
2023/01/11 01:40:45;;;;;;;21.15;5.13;;;12.20;99.90;;;11.40;100.00;101120.09;4169089;28;20485;-72
2023/01/11 01:42:46;;;;;;;34.30;7.65;;;12.20;99.90;;;11.41;100.00;101120.91;4169406;28;20036;-72
2023/01/11 01:45:05;;;;;;;27.67;5.63;;;12.20;99.90;;;11.41;100.00;101121.72;4169376;28;20029;-72
2023/01/11 01:47:06;;;;;;;27.33;7.03;;;12.20;99.90;;;11.37;100.00;101124.81;4169088;28;20148;-72
2023/01/11 01:49:15;;;;;;;23.88;5.03;;;12.20;99.90;;;11.35;100.00;101134.72;4170871;28;20029;-72
2023/01/11 01:51:24;;;;;;;24.75;4.93;;;12.10;99.90;;;11.21;100.00;101129.94;4155688;28;20026;-72
2023/01/11 01:53:42;;;;;;;37.88;7.07;;;12.00;99.90;;;11.09;100.00;101137.25;4155526;28;20054;-72
2023/01/11 01:55:50;;;;;;;25.70;4.15;;;11.90;99.90;;;11.07;100.00;101140.06;4174383;28;20500;-72
2023/01/11 01:57:53;;;;;;;19.80;3.38;;;11.90;99.90;;;10.93;100.00;101135.28;4163971;28;20021;-72
2023/01/11 01:59:59;;;;;;;27.67;5.40;;;11.80;99.90;;;10.96;100.00;101142.09;4155020;28;20047;-72
2023/01/11 02:02:01;;;;;;;24.02;6.20;;;11.80;99.90;;;10.90;100.00;101130.28;4152132;28;20026;-72
2023/01/11 02:04:26;;;;;;;24.65;3.78;;;11.70;99.90;;;10.79;100.00;101124.41;4169212;28;20025;-72
2023/01/11 02:06:26;;;;;;;;;;;11.70;99.90;;;10.65;100.00;101136.28;4169060;28;20465;-72
2023/01/11 02:08:38;;;;;;;28.88;4.20;;;11.60;99.90;;;10.61;100.00;101152.53;4186919;28;19913;-72
2023/01/11 02:10:39;;;;;;;27.92;4.40;;;11.50;99.90;;;10.60;100.00;101172.84;4143857;28;20033;-72
2023/01/11 02:13:13;;;;;;;30.58;6.15;;;11.50;99.90;;;10.63;100.00;101177.81;4139936;28;20038;-72
2023/01/11 02:15:17;;;;;;;20.38;3.80;;;11.50;99.90;;;10.68;100.00;101177.38;4156906;28;20033;-72
2023/01/11 02:17:18;;;;;;;;;;;11.50;99.90;;;10.61;100.00;101178.94;4168130;28;20462;-72
2023/01/11 02:19:50;;;;;;;27.63;4.70;;;11.40;99.90;;;10.65;100.00;101175.03;4171974;28;19909;-72
2023/01/11 02:22:13;;;;;;;28.73;4.35;;;11.40;99.90;;;10.55;100.00;101170.63;4168662;28;20060;-72
2023/01/11 02:24:54;;;;;;;21.13;4.03;;;11.40;99.90;;;10.52;100.00;101175.34;4167424;28;20040;-72
2023/01/11 02:27:20;;;;;;;21.50;4.05;;;11.40;99.90;;;10.42;100.00;101182.50;4168984;28;20425;-72
2023/01/11 02:29:36;;;;;;;29.73;6.20;;;11.30;99.90;;;10.45;100.00;101198.84;4168163;28;20049;-72
2023/01/11 02:31:43;;;;;;;27.55;3.88;;;11.30;99.90;;;10.41;100.00;101209.81;4167304;28;20061;-72
2023/01/11 02:34:30;;;;;;;16.10;4.10;;;11.20;99.90;;;10.27;100.00;101202.38;4170486;28;20026;-72
2023/01/11 02:37:09;;;;;;;24.50;4.53;;;11.10;99.90;;;10.20;100.00;101214.47;4174637;28;20032;-72
2023/01/11 02:39:43;;;;;;;29.48;4.95;;;11.10;99.90;;;10.25;100.00;101217.50;4182591;28;20039;-72
2023/01/11 02:45:00;;;;;;;23.65;4.13;;;11.00;99.90;;;10.18;100.00;101229.59;4124690;28;20444;-72
2023/01/11 02:47:07;;;;;;;22.83;3.92;;;11.00;99.90;;;10.15;100.00;101235.16;4119106;28;20406;-72
2023/01/11 02:49:39;;;;;;;28.00;4.13;;;11.00;99.90;;;10.06;100.00;101238.59;4125143;28;20052;-72
2023/01/11 02:51:51;;;;;;;21.42;3.83;;;11.00;99.90;;;9.94;100.00;101236.13;4176028;28;20065;-72
2023/01/11 02:54:11;;;;;;;25.95;3.97;;;10.80;99.90;;;9.90;100.00;101244.44;4121653;28;20046;-72
2023/01/11 02:56:25;;;;;;;24.08;5.15;;;10.80;99.90;;;9.81;100.00;101240.00;4151247;28;20161;-72
2023/01/11 02:58:31;;;;;;;22.20;4.82;;;10.70;99.90;;;9.70;100.00;101246.25;4159691;28;20025;-72
2023/01/11 03:00:36;;;;;;;38.13;5.80;;;10.70;99.90;;;9.84;100.00;101243.19;4151629;28;20034;-72
2023/01/11 03:02:36;;;;;;;28.50;5.35;;;10.70;99.90;;;9.79;100.00;101245.41;4168462;28;20113;-72
2023/01/11 03:04:38;;;;;;;30.65;5.78;;;10.70;99.90;;;9.81;100.00;101246.09;4150947;28;20026;-72
2023/01/11 03:06:39;;;;;;;18.90;4.35;;;10.60;99.90;;;9.90;100.00;101250.53;4150401;28;20104;-72
2023/01/11 03:08:49;;;;;;;25.90;5.82;;;10.70;99.90;;;9.89;100.00;101251.50;4166407;28;20048;-72
2023/01/11 03:14:16;;;;;;;22.63;4.32;;;10.70;99.90;;;9.72;100.00;101254.00;4140928;28;20036;-72
2023/01/11 03:16:26;;;;;;;27.40;4.50;;;10.60;99.90;;;9.75;100.00;101251.91;4152954;28;20076;-72
2023/01/11 03:18:35;;;;;;;30.20;5.60;;;10.60;99.90;;;9.67;100.00;101251.78;4161558;28;20108;-72
2023/01/11 03:21:01;;;;;;;29.10;6.28;;;10.60;99.90;;;9.67;100.00;101264.97;4168117;28;20025;-72
2023/01/11 03:23:21;;;;;;;25.35;5.55;;;10.60;99.90;;;9.70;100.00;101266.47;4152071;28;20072;-72
2023/01/11 03:25:44;;;;;;;27.13;4.00;;;10.50;99.90;;;9.65;100.00;101264.25;4151172;28;20097;-72
2023/01/11 03:28:31;;;;;;;29.02;6.40;;;10.60;99.90;;;9.67;100.00;101266.75;4152217;28;20513;-72
2023/01/11 03:31:24;;;;;;;30.90;6.03;;;10.50;99.90;;;9.71;100.00;101265.50;4153451;28;20029;-72
2023/01/11 03:33:55;;;;;;;33.63;5.28;;;10.60;99.90;;;9.64;100.00;101267.88;4183384;28;20538;-73
2023/01/11 03:36:27;;;;;;;29.25;5.03;;;10.50;99.90;;;9.63;100.00;101275.88;4167999;28;20053;-72
2023/01/11 03:38:39;;;;;;;29.05;4.43;;;10.50;99.90;;;9.69;100.00;101275.34;4159152;28;20095;-72
2023/01/11 03:40:50;;;;;;;23.92;4.20;;;10.50;99.90;;;9.56;100.00;101275.59;4155035;28;20030;-72
2023/01/11 03:43:11;;;;;;;27.88;4.78;;;10.50;99.90;;;9.59;100.00;101282.41;4154600;28;20029;-72
2023/01/11 03:45:12;;;;;;;28.35;5.20;;;10.50;99.90;;;9.50;100.00;101284.03;4155710;28;20036;-72
2023/01/11 03:47:16;;;;;;;26.65;4.38;;;10.40;99.90;;;9.51;100.00;101285.72;4155975;28;20112;-72
2023/01/11 03:49:36;;;;;;;;;;;10.40;99.90;;;9.45;100.00;101289.72;4154168;28;20029;-72
2023/01/11 03:51:46;;;;;;;27.45;3.70;;;10.30;99.90;;;9.54;100.00;101282.81;4192972;28;19909;-72
2023/01/11 03:53:50;;;;;;;29.52;5.32;;;10.40;99.90;;;9.66;100.00;101288.78;4154789;28;20097;-72
2023/01/11 03:55:57;;;;;;;26.23;5.25;;;10.50;99.90;;;9.64;100.00;101283.66;4171038;28;20032;-72
2023/01/11 03:57:59;;;;;;;25.23;6.00;;;10.50;99.90;;;9.66;100.00;101275.63;4154531;28;20030;-72
2023/01/11 04:00:00;;;;;;;33.08;6.53;;;10.50;99.90;;;9.65;100.00;101282.69;4175242;28;20029;-72
2023/01/11 04:02:01;;;;;;;34.67;5.22;;;10.50;99.90;;;9.55;100.00;101273.13;4177789;28;20075;-72
2023/01/11 04:04:02;;;;;;;32.28;6.65;;;10.40;99.90;;;9.60;100.00;101269.09;4153315;28;20026;-72
2023/01/11 04:06:04;;;;;;;25.45;4.30;;;10.40;99.90;;;9.65;100.00;101285.31;4186088;28;20023;-72
2023/01/11 04:08:05;;;;;;;44.20;6.22;;;10.40;99.90;;;9.58;100.00;101272.84;4153267;28;20537;-72
2023/01/11 04:10:07;;;;;;;27.65;4.65;;;10.40;99.90;;;9.57;100.00;101285.16;4153347;28;20041;-72
2023/01/11 04:12:08;;;;;;;35.05;6.88;;;10.40;99.90;;;9.45;100.00;101292.34;4153351;28;20494;-72
2023/01/11 04:14:09;;;;;;;26.70;5.65;;;10.30;99.90;;;9.38;100.00;101277.22;4170935;28;20029;-72
2023/01/11 04:16:09;;;;;;;35.50;4.93;;;10.20;99.90;;;9.31;100.00;101281.38;4170728;28;20030;-72
2023/01/11 04:18:10;;;;;;;25.00;4.45;;;10.20;99.90;;;9.34;100.00;101296.91;4170547;28;20034;-72
2023/01/11 04:20:12;;;;;;;24.95;5.82;;;10.20;99.90;;;9.27;100.00;101293.97;4152934;28;20025;-72
2023/01/11 04:22:13;;;;;;;33.35;4.93;;;10.20;99.90;;;9.30;100.00;101296.34;4153131;28;20034;-72
2023/01/11 04:24:14;;;;;;;23.30;5.45;;;10.20;99.90;;;9.24;100.00;101302.13;4170612;28;20507;-72
2023/01/11 04:26:16;;;;;;;33.25;5.35;;;10.10;99.90;;;9.22;100.00;101309.34;4170440;28;20034;-72
2023/01/11 04:28:17;;;;;;;28.10;5.35;;;10.10;99.90;;;9.16;100.00;101303.78;4159820;28;20107;-72
2023/01/11 04:30:18;;;;;;;29.27;6.13;;;10.10;99.90;;;9.08;100.00;101303.63;4153011;28;20026;-72
2023/01/11 04:32:19;;;;;;;27.23;4.70;;;10.00;99.90;;;9.01;100.00;101302.47;4170555;28;20028;-72
2023/01/11 04:34:19;;;;;;;24.67;4.88;;;9.90;99.90;;;8.99;100.00;101310.47;4170346;28;20026;-72
2023/01/11 04:36:21;;;;;;;36.92;5.90;;;9.90;99.90;;;8.94;100.00;101303.94;4170332;28;20025;-72
2023/01/11 04:38:23;;;;;;;36.40;6.13;;;9.80;99.90;;;8.97;100.00;101306.31;4152890;28;20065;-72
2023/01/11 04:40:25;;;;;;;29.83;5.40;;;9.80;99.90;;;8.95;100.00;101317.00;4170467;28;20032;-72
2023/01/11 04:42:26;;;;;;;41.47;6.25;;;9.80;99.90;;;9.00;100.00;101325.31;4170245;28;20056;-72
2023/01/11 04:44:26;;;;;;;33.45;6.15;;;9.80;99.90;;;9.03;100.00;101327.69;4152772;28;20029;-72
2023/01/11 04:46:27;;;;;;;32.80;4.80;;;9.80;99.90;;;9.06;100.00;101337.09;4152693;28;20034;-72
2023/01/11 04:48:28;;;;;;;26.92;5.32;;;9.80;99.90;;;9.04;100.00;101339.03;4170225;28;20042;-72
2023/01/11 04:50:29;;;;;;;26.83;5.10;;;9.80;99.90;;;8.90;100.00;101332.31;4170094;28;20148;-72
2023/01/11 04:52:30;;;;;;;32.50;6.63;;;9.80;99.90;;;8.89;100.00;101346.44;4179752;28;20042;-72
2023/01/11 04:54:31;;;;;;;30.80;5.25;;;9.80;99.90;;;8.82;100.00;101355.81;4152651;28;20034;-72
2023/01/11 04:56:32;;;;;;;34.30;7.18;;;9.70;99.90;;;8.78;100.00;101355.22;4170214;28;20032;-72
2023/01/11 04:58:35;;;;;;;39.35;5.32;;;9.60;99.90;;;8.71;100.00;101353.25;4152597;28;20029;-72
2023/01/11 05:00:35;;;;;;;38.90;5.78;;;9.60;99.90;;;8.76;100.00;101367.69;4152739;28;20512;-72
2023/01/11 05:02:38;;;;;;;28.90;4.78;;;9.60;99.90;;;8.68;100.00;101371.94;4170052;28;20116;-72
2023/01/11 05:04:38;;;;;;;40.72;5.75;;;9.60;99.90;;;8.77;100.00;101384.31;4152403;28;20025;-72
2023/01/11 05:06:39;;;;;;;33.38;5.40;;;9.60;99.90;;;8.74;100.00;101392.47;4152085;28;20579;-72
2023/01/11 05:08:45;;;;;;;33.63;5.97;;;9.60;99.90;;;8.78;100.00;101399.94;4152428;28;20041;-72
2023/01/11 05:10:56;;;;;;;34.13;6.75;;;9.60;99.90;;;8.75;100.00;101394.13;4170100;28;20071;-72
2023/01/11 05:12:57;;;;;;;28.58;5.43;;;9.60;99.90;;;8.69;100.00;101386.75;4152765;28;20104;-72
2023/01/11 05:14:58;;;;;;;33.92;5.97;;;9.50;99.90;;;8.63;100.00;101388.06;4169742;28;20033;-72
2023/01/11 05:16:58;;;;;;;32.70;5.88;;;9.50;99.90;;;8.59;100.00;101384.06;4170062;28;20029;-72
2023/01/11 05:19:00;;;;;;;37.90;6.13;;;9.50;99.90;;;8.56;100.00;101388.72;4176318;28;20037;-72
2023/01/11 05:21:03;;;;;;;26.40;5.47;;;9.50;99.90;;;8.61;100.00;101403.16;4152066;28;20065;-72
2023/01/11 05:23:04;;;;;;;38.22;5.32;;;9.40;99.90;;;8.53;100.00;101397.72;4152183;28;20044;-72
2023/01/11 05:25:05;;;;;;;35.38;5.75;;;9.40;99.90;;;8.51;100.00;101407.50;4170167;28;20021;-72
2023/01/11 05:27:06;;;;;;;34.83;6.00;;;9.40;99.90;;;8.53;100.00;101412.66;4184822;28;20044;-72
2023/01/11 05:29:11;;;;;;;28.08;5.10;;;9.40;99.90;;;8.51;100.00;101410.13;4169584;28;20034;-72
2023/01/11 05:31:12;;;;;;;30.88;5.13;;;9.40;99.90;;;8.40;100.00;101407.56;4152005;28;20028;-72
2023/01/11 05:33:13;;;;;;;33.88;5.60;;;9.30;99.90;;;8.35;100.00;101422.88;4152208;28;20077;-72
2023/01/11 05:35:14;;;;;;;27.80;6.03;;;9.30;99.90;;;8.34;100.00;101432.56;4151953;28;20018;-72
2023/01/11 05:37:15;;;;;;;35.33;5.88;;;9.20;99.90;;;8.31;100.00;101438.06;4169579;28;20033;-72
2023/01/11 05:39:16;;;;;;;30.50;6.78;;;9.20;99.90;;;8.30;100.00;101438.19;4169308;28;20374;-72
2023/01/11 05:41:19;;;;;;;30.08;5.20;;;9.20;99.90;;;8.24;100.00;101436.84;4151826;28;20072;-72
2023/01/11 05:43:20;;;;;;;29.60;5.30;;;9.10;99.90;;;8.20;100.00;101439.84;4152015;28;20033;-72
2023/01/11 05:45:34;;;;;;;26.30;5.03;;;9.10;99.90;;;8.18;100.00;101442.59;4151804;28;20041;-72
2023/01/11 05:47:35;;;;;;;32.78;5.35;;;9.00;99.90;;;8.13;100.00;101446.56;4169120;28;20068;-72
2023/01/11 05:49:36;;;;;;;29.40;6.50;;;9.00;99.90;;;8.12;100.00;101447.53;4151930;28;20026;-72
2023/01/11 05:51:37;;;;;;;39.38;7.25;;;9.00;99.90;;;8.12;100.00;101461.47;4158761;28;20080;-72
2023/01/11 05:53:38;;;;;;;29.73;4.78;;;9.00;99.90;;;8.08;100.00;101453.97;4171747;28;20063;-72
2023/01/11 05:55:38;;;;;;;23.98;4.35;;;8.90;99.90;;;8.00;100.00;101459.03;4169449;28;20045;-72
2023/01/11 05:57:44;;;;;;;24.88;5.00;;;8.90;99.90;;;7.94;100.00;101464.75;4169369;28;20506;-72
2023/01/11 05:59:45;;;;;;;26.45;5.60;;;8.80;99.90;;;7.94;100.00;101476.09;4169203;28;20091;-72
2023/01/11 06:01:46;;;;;;;30.63;5.55;;;8.80;99.90;;;7.86;100.00;101482.91;4169030;28;20037;-73
2023/01/11 06:03:47;;;;;;;34.60;6.65;;;8.80;99.90;;;7.94;100.00;101496.28;4151170;28;20026;-73
2023/01/11 06:05:48;;;;;;;31.35;5.03;;;8.70;99.90;;;7.94;100.00;101504.16;4151494;28;20034;-72
2023/01/11 06:07:49;;;;;;;23.20;5.22;;;8.80;99.90;;;7.93;100.00;101515.63;4157984;28;20064;-72
2023/01/11 06:09:50;;;;;;;37.97;5.60;;;8.80;99.90;;;7.90;100.00;101518.47;4169012;28;20025;-72
2023/01/11 06:11:51;;;;;;;26.08;5.95;;;8.70;99.90;;;7.89;100.00;101524.69;4167600;28;20026;-72
2023/01/11 06:13:51;;;;;;;41.15;4.93;;;8.70;99.90;;;7.87;100.00;101516.94;4169365;28;20017;-72
2023/01/11 06:15:54;;;;;;;36.80;4.80;;;8.70;99.90;;;7.86;100.00;101519.66;4169019;28;20025;-72
2023/01/11 06:17:54;;;;;;;38.72;5.40;;;8.70;99.90;;;7.82;100.00;101514.66;4168868;28;20029;-72
2023/01/11 06:19:55;;;;;;;31.67;5.30;;;8.70;99.90;;;7.87;100.00;101513.47;4168868;28;20029;-72
2023/01/11 06:21:56;;;;;;;40.67;5.45;;;8.70;99.90;;;7.84;100.00;101514.53;4169147;28;20040;-72
2023/01/11 06:23:57;;;;;;;43.80;5.70;;;8.70;99.90;;;7.95;100.00;101525.03;4168910;28;20485;-72
2023/01/11 06:26:07;;;;;;;29.67;5.68;;;8.70;99.90;;;7.86;100.00;101535.44;4151687;28;20118;-72
2023/01/11 06:28:08;;;;;;;39.92;6.75;;;8.70;99.90;;;7.80;100.00;101529.72;4151717;28;20026;-72
2023/01/11 06:30:11;;;;;;;36.13;6.25;;;8.70;99.90;;;7.81;100.00;101543.69;4168836;28;20034;-72
2023/01/11 06:32:12;;;;;;;27.85;5.18;;;8.70;99.90;;;7.76;100.00;101546.66;4168752;28;20017;-72
2023/01/11 06:34:13;;;;;;;33.95;6.13;;;8.60;99.90;;;7.71;100.00;101548.78;4151097;28;20565;-72
2023/01/11 06:36:15;;;;;;;35.25;5.40;;;8.60;99.90;;;7.74;100.00;101552.97;4168585;28;20022;-72
2023/01/11 06:38:18;;;;;;;37.85;5.47;;;8.60;99.90;;;7.72;100.00;101560.97;4151249;28;20034;-72
2023/01/11 06:40:19;;;;;;;38.97;6.53;;;8.60;99.90;;;7.65;100.00;101562.41;4151220;28;20061;-72
2023/01/11 06:42:20;;;;;;;36.08;5.10;;;8.60;99.90;;;7.65;100.00;101565.03;4168527;28;20029;-72
2023/01/11 06:44:21;;;;;;;38.72;5.72;;;8.50;99.90;;;7.77;100.00;101576.38;4151222;28;20037;-72
2023/01/11 06:46:22;;;;;;;27.23;4.95;;;8.60;99.90;;;7.75;100.00;101583.53;4168367;28;20030;-72
2023/01/11 06:48:24;;;;;;;31.80;5.05;;;8.60;99.90;;;7.85;100.00;101575.81;4168574;28;20083;-72
2023/01/11 06:50:25;;;;;;;42.67;6.55;;;8.60;99.90;;;7.87;100.00;101577.34;4168253;28;20473;-72
2023/01/11 06:52:26;;;;;;;30.63;5.18;;;8.70;99.90;;;7.93;100.00;101592.63;4160794;28;20552;-72
2023/01/11 06:54:27;;;;;;;30.48;5.13;;;8.70;99.90;;;7.84;100.00;101590.72;4152441;28;20030;-72
2023/01/11 06:56:28;;;;;;;29.38;4.65;;;8.70;99.90;;;7.75;100.00;101586.16;4151124;28;20161;-72
2023/01/11 06:58:29;;;;;;;36.75;5.00;;;8.60;99.90;;;7.74;100.00;101595.84;4152139;28;20086;-72
2023/01/11 07:00:30;;;;;;;30.70;6.32;;;8.60;99.90;;;7.72;100.00;101599.53;4152390;28;20036;-72
2023/01/11 07:02:30;;;;;;;40.08;6.07;;;8.60;99.90;;;7.69;100.00;101608.47;4152431;28;20060;-72
2023/01/11 07:04:31;;;;;;;32.15;6.03;;;8.60;99.90;;;7.89;100.00;101608.75;4157409;28;20033;-72
2023/01/11 07:06:35;;;;;;;30.98;4.72;;;8.60;99.90;;;7.76;100.00;101614.94;4152012;28;20037;-72
2023/01/11 07:08:37;;;;;;;28.83;5.60;;;8.60;99.90;;;7.71;100.00;101617.06;4150824;28;20030;-72
2023/01/11 07:10:38;;;;;;;30.50;4.32;;;8.60;99.90;;;7.66;100.00;101613.13;4152370;28;20116;-72
2023/01/11 07:12:39;;;;;;;31.30;5.03;;;8.60;99.90;;;7.77;100.00;101610.50;4150985;28;20109;-72
2023/01/11 07:14:40;;;;;;;24.70;4.45;;;8.60;99.90;;;7.78;100.00;101610.41;4150905;28;20030;-72
2023/01/11 07:16:41;;;;;;;25.83;4.55;;;8.60;99.90;;;7.70;100.00;101612.78;4137743;28;20038;-72
2023/01/11 07:18:42;;;;;;;20.48;3.65;;;8.60;99.90;;;7.64;100.00;101621.13;4155395;28;20405;-72
2023/01/11 07:20:43;;;;;;;23.77;4.68;;;8.50;99.90;;;7.55;100.00;101611.31;4155108;28;20088;-72
2023/01/11 07:22:44;;;;;;;23.38;4.03;;;8.50;99.90;;;7.55;100.00;101608.69;4153687;28;20401;-72
2023/01/11 07:24:44;;;;;;;28.52;5.65;;;8.40;99.90;;;7.58;100.00;101618.13;4155184;28;20033;-72
2023/01/11 07:26:45;;;;;;;32.70;4.00;;;8.40;99.90;;;7.49;100.00;101606.53;4154002;28;20108;-72
2023/01/11 07:28:46;;;;;;;28.20;5.03;;;8.40;99.90;;;7.51;100.00;101598.53;4153922;28;20037;-72
2023/01/11 07:30:48;;;;;;;30.23;4.03;;;8.40;99.90;;;7.46;100.00;101606.75;4186845;28;20032;-72
2023/01/11 07:32:48;;;;;;;28.85;6.15;;;8.30;99.90;;;7.43;100.00;101606.16;4180049;28;20061;-72
2023/01/11 07:34:49;;;;;;;33.83;5.32;;;8.30;99.90;;;7.37;100.00;101612.69;4144629;28;20033;-72
2023/01/11 07:36:50;;;;;;;22.98;4.85;;;8.30;99.90;;;7.34;100.00;101617.34;4153953;28;20037;-72
2023/01/11 07:38:51;;;;;;;23.42;4.78;;;8.30;99.90;;;7.36;100.00;101618.06;4153873;28;20100;-72
2023/01/11 07:40:52;;;;;;;25.92;4.03;;;8.30;99.90;;;7.34;100.00;101618.19;4154369;28;20045;-72
2023/01/11 07:45:13;;;;;;;29.40;4.90;;;8.20;99.90;;;7.25;100.00;101621.47;4153868;28;20084;-72
2023/01/11 07:47:14;;;;;;;30.75;5.13;;;8.10;99.90;;;7.25;100.00;101626.72;4154773;28;20030;-72
2023/01/11 07:49:15;;;;;;;20.13;3.88;;;8.10;99.90;;;7.19;100.00;101629.81;4154976;28;20058;-72
2023/01/11 07:51:19;;;;;;;27.35;4.82;;;8.10;99.90;;;7.27;100.00;101637.94;4157629;28;20021;-72
2023/01/11 07:53:21;;;;;;;26.73;4.55;;;8.10;99.90;;;7.27;100.00;101643.19;4165768;28;20072;-72
2023/01/11 07:55:22;;;;;;;28.42;4.28;;;8.10;99.90;;;7.30;100.00;101642.13;4153410;28;20488;-72
2023/01/11 07:57:22;;;;;;;28.80;4.05;;;8.10;99.90;;;7.35;100.00;101646.06;4153477;28;20034;-72
2023/01/11 07:59:23;;;;;;;20.35;3.38;;;8.20;99.90;;;7.30;100.00;101637.72;4171110;28;20072;-72
2023/01/11 08:01:25;;;;;;;22.67;4.35;;;8.20;99.90;;;7.25;100.00;101642.47;4171142;28;20067;-73
2023/01/11 08:03:25;;;;;;;28.88;6.03;;;8.10;99.90;;;7.26;100.00;101646.75;4161422;28;20033;-72
2023/01/11 08:05:26;;;;;;;24.05;5.15;;;8.10;99.90;;;7.26;100.00;101648.56;4153298;28;20037;-72
2023/01/11 08:07:27;;;;;;;18.08;2.88;;;8.10;99.90;;;7.20;100.00;101636.69;4186333;28;20465;-72
2023/01/11 08:09:28;;;;;;;29.45;4.30;;;8.10;99.90;;;7.27;100.00;101643.19;4153316;28;20082;-72
2023/01/11 08:16:08;;;;;;;23.10;5.18;;;8.10;99.90;;;7.17;100.00;101650.88;4166651;28;20084;-72
2023/01/11 08:18:10;;;;;;;25.58;6.70;;;8.10;99.90;;;7.19;100.00;101656.03;4153066;28;20026;-72
2023/01/11 08:20:11;;;;;;;22.08;4.68;;;8.00;99.90;;;7.20;100.00;101671.66;4170703;28;20503;-72
2023/01/11 08:22:12;;;;;;;25.65;6.13;;;8.00;99.90;;;7.16;100.00;101670.22;4170640;28;20033;-72
2023/01/11 08:24:13;;;;;;;25.45;4.97;;;8.10;99.90;;;7.11;100.00;101674.94;4156212;28;20026;-72
2023/01/11 08:26:16;;;;;;;22.88;5.20;;;8.00;99.90;;;7.15;100.00;101678.19;4170035;28;20034;-72
2023/01/11 08:28:17;;;;;;;30.23;6.18;;;8.00;99.90;;;7.17;100.00;101677.13;4153272;28;20107;-72
2023/01/11 08:30:18;;;;;;;28.15;5.38;;;8.00;99.90;;;7.14;100.00;101682.59;4170651;28;20025;-72
2023/01/11 08:32:19;;;;;;;29.15;5.82;;;8.00;99.90;;;7.14;100.00;101684.38;4153021;28;20028;-72
2023/01/11 08:34:20;;;;;;;30.67;5.55;;;8.00;99.90;;;7.15;100.00;101691.31;4153415;28;20509;-72
2023/01/11 08:36:23;;;;;;;30.42;6.47;;;8.00;99.90;;;7.18;100.00;101696.34;4172933;28;20036;-72
2023/01/11 08:38:24;;;;;;;28.67;6.68;;;8.00;99.90;;;7.16;100.00;101699.09;4153207;28;20449;-72
2023/01/11 08:40:24;;;;;;;39.47;8.88;;;8.10;99.90;;;7.25;100.00;101702.84;4152910;28;20034;-72
2023/01/11 08:42:26;;;;;;;28.20;7.88;;;8.10;99.90;;;7.28;100.00;101707.00;4170485;28;20029;-72
2023/01/11 08:44:27;;;;;;;27.98;7.65;;;8.10;99.90;;;7.24;100.00;101698.53;4181576;28;20049;-72
2023/01/11 08:46:27;;;;;;;35.35;8.93;;;8.10;99.90;;;7.29;100.00;101695.56;4170113;28;20095;-72
2023/01/11 08:48:28;;;;;;;34.38;7.40;;;8.20;99.90;;;7.33;100.00;101710.97;4170195;28;20025;-72
2023/01/11 08:50:29;;;;;;;33.70;7.88;;;8.20;99.90;;;7.33;100.00;101716.22;4169757;28;20030;-72
2023/01/11 08:52:30;;;;;;;33.88;8.32;;;8.20;99.90;;;7.41;100.00;101711.25;4162110;28;20046;-72
2023/01/11 08:54:31;;;;;;;36.92;8.50;;;8.30;99.90;;;7.41;100.00;101706.00;4170076;28;20027;-72
2023/01/11 08:56:32;;;;;;;29.48;5.90;;;8.30;99.90;;;7.44;100.00;101720.69;4170186;28;20025;-72